Time;durP1;ratioP1;P1;durP2;ratioP2;P2;SDS_P1;SDS_P2;PMS_P1;PMS_P2;Temp;Humidity;BMP_temperature;BMP_pressure;BME280_temperature;BME280_humidity;BME280_pressure;Samples;Min_cycle;Max_cycle;Signal;HPM_P1;HPM_P2
2023/07/12 00:00:47;;;;;;;8.18;4.50;;;;;;;23.41;48.31;99684.09;7632840;32;40650;-78
2023/07/12 00:05:03;;;;;;;7.30;4.28;;;;;;;23.57;46.69;99662.59;7632586;32;38991;-78
2023/07/12 00:09:19;;;;;;;8.95;4.25;;;;;;;23.51;45.70;99658.50;7632644;32;38076;-77
2023/07/12 00:13:36;;;;;;;9.52;4.62;;;;;;;23.62;44.66;99672.66;7632398;32;40493;-78
2023/07/12 00:17:53;;;;;;;7.25;4.47;;;;;;;23.42;45.40;99667.06;7632695;32;39786;-78
2023/07/12 00:22:10;;;;;;;8.77;4.32;;;;;;;23.41;44.95;99653.50;7632475;32;38060;-78
2023/07/12 00:26:33;;;;;;;9.65;4.68;;;;;;;23.52;43.88;99662.88;7631376;32;36855;-78
2023/07/12 00:30:51;;;;;;;7.93;4.47;;;;;;;23.39;43.96;99650.28;7632432;32;39332;-77
2023/07/12 00:35:12;;;;;;;9.85;4.22;;;;;;;23.13;46.67;99665.56;7632335;32;39214;-78
2023/07/12 00:39:29;;;;;;;8.70;3.90;;;;;;;23.08;47.31;99663.03;7632369;32;37967;-78
2023/07/12 00:44:01;;;;;;;8.00;4.40;;;;;;;23.17;47.25;99663.66;7632334;32;37261;-78
2023/07/12 00:48:19;;;;;;;6.53;3.58;;;;;;;23.14;47.50;99656.03;7632359;32;39320;-79
2023/07/12 00:52:35;;;;;;;8.10;3.80;;;;;;;23.30;43.03;99658.00;7632163;32;39910;-77
2023/07/12 00:56:52;;;;;;;7.90;4.05;;;;;;;23.22;42.24;99657.81;7631255;32;38726;-78
2023/07/12 01:01:09;;;;;;;8.13;4.62;;;;;;;23.39;42.22;99644.72;7645700;32;37799;-78
2023/07/12 01:05:26;;;;;;;8.50;4.43;;;;;;;23.40;43.00;99640.75;7653717;32;39963;-78
2023/07/12 01:09:42;;;;;;;12.82;4.72;;;;;;;23.64;42.65;99645.25;7632182;32;40838;-78
2023/07/12 01:13:59;;;;;;;10.20;4.60;;;;;;;23.72;42.42;99643.47;7631670;32;38858;-78
2023/07/12 01:18:15;;;;;;;6.78;4.20;;;;;;;23.75;42.29;99639.94;7632070;32;37891;-78
2023/07/12 01:22:32;;;;;;;7.95;4.10;;;;;;;23.85;41.76;99636.59;7631964;32;39024;-78
2023/07/12 01:26:51;;;;;;;9.85;4.10;;;;;;;23.91;41.43;99631.56;7631997;32;39914;-78
2023/07/12 01:31:07;;;;;;;8.13;3.92;;;;;;;23.93;41.22;99627.22;7639429;32;37903;-77
2023/07/12 01:35:24;;;;;;;10.13;4.20;;;;;;;23.79;41.40;99633.28;7658044;32;37862;-77
2023/07/12 01:39:41;;;;;;;6.53;4.00;;;;;;;23.88;41.20;99627.53;7658044;32;39415;-77
2023/07/12 01:43:57;;;;;;;6.82;3.65;;;;;;;23.92;40.92;99631.22;7657943;32;40204;-77
2023/07/12 01:48:13;;;;;;;9.68;4.62;;;;;;;24.17;40.59;99628.13;7657845;32;37944;-78
2023/07/12 01:52:30;;;;;;;8.45;4.10;;;;;;;23.94;42.22;99631.62;7657789;32;38271;-77
2023/07/12 01:56:46;;;;;;;7.65;4.00;;;;;;;23.26;48.79;99630.09;7642076;32;39147;-77
2023/07/12 02:01:03;;;;;;;10.45;4.60;;;;;;;23.40;48.14;99640.75;7631459;32;39972;-77
2023/07/12 02:05:21;;;;;;;8.32;4.10;;;;;;;23.38;46.39;99637.53;7635308;32;38747;-78
2023/07/12 02:10:01;;;;;;;6.18;3.87;;;;;;;23.53;45.28;99627.53;7657552;32;37041;-78
2023/07/12 02:14:17;;;;;;;7.37;3.60;;;;;;;23.36;43.76;99620.41;7657049;32;39284;-77
2023/07/12 02:18:34;;;;;;;11.55;3.78;;;;;;;23.72;42.60;99633.13;7655285;32;40025;-78
2023/07/12 02:22:50;;;;;;;6.68;4.15;;;;;;;23.67;42.70;99632.63;7637507;32;37858;-77
2023/07/12 02:27:07;;;;;;;8.60;4.30;;;;;;;23.88;42.29;99623.94;7856546;27;37160;-77
2023/07/12 02:31:24;;;;;;;6.57;3.58;;;;;;;23.96;42.10;99611.78;7656039;32;37775;-77
2023/07/12 02:35:42;;;;;;;7.57;3.92;;;;;;;24.03;42.00;99600.78;7655577;32;40893;-78
2023/07/12 02:39:58;;;;;;;10.02;4.43;;;;;;;23.84;42.54;99590.47;7656729;32;37985;-78
2023/07/12 02:44:15;;;;;;;7.32;4.18;;;;;;;23.83;42.69;99583.28;7656577;32;38169;-78
2023/07/12 02:48:31;;;;;;;8.55;4.32;;;;;;;23.99;42.40;99586.81;7656617;32;40080;-78
2023/07/12 02:52:48;;;;;;;7.30;4.10;;;;;;;23.86;42.97;99587.31;7656421;32;40768;-78
2023/07/12 02:57:05;;;;;;;8.68;4.53;;;;;;;23.80;43.01;99592.31;7656354;32;38544;-79
2023/07/12 03:01:21;;;;;;;10.52;4.25;;;;;;;23.83;43.33;99588.06;7656424;32;37190;-79
2023/07/12 03:05:39;;;;;;;12.15;4.32;;;;;;;23.91;43.10;99582.25;7656132;32;39342;-78
2023/07/12 03:09:58;;;;;;;10.52;4.35;;;;;;;23.91;43.14;99576.69;7656024;32;40010;-78
2023/07/12 03:14:16;;;;;;;9.23;4.25;;;;;;;24.16;42.66;99573.59;7655911;32;38428;-78
2023/07/12 03:18:32;;;;;;;8.90;4.28;;;;;;;24.18;42.92;99579.59;7655827;32;37148;-78
2023/07/12 03:22:49;;;;;;;11.12;5.03;;;;;;;24.13;43.17;99577.13;7655791;32;39505;-77
2023/07/12 03:27:05;;;;;;;7.97;4.25;;;;;;;24.31;42.66;99583.81;7655505;32;40788;-77
2023/07/12 03:31:22;;;;;;;8.65;4.30;;;;;;;24.31;42.83;99592.16;7657292;32;37893;-78
2023/07/12 03:35:38;;;;;;;7.55;4.28;;;;;;;24.52;42.50;99583.38;7659551;32;37102;-77
2023/07/12 03:39:55;;;;;;;8.43;4.15;;;;;;;24.52;42.50;99593.75;7659676;32;39100;-78
2023/07/12 03:44:12;;;;;;;9.07;4.50;;;;;;;24.64;42.31;99595.56;7659500;32;40025;-77
2023/07/12 03:48:29;;;;;;;9.63;4.10;;;;;;;24.66;42.46;99594.00;7658170;32;38789;-78
2023/07/12 03:52:45;;;;;;;7.78;4.00;;;;;;;24.61;42.74;99579.59;7658228;32;37098;-78
2023/07/12 03:57:01;;;;;;;8.75;4.07;;;;;;;24.54;42.69;99580.25;7659382;32;39401;-78
2023/07/12 04:01:18;;;;;;;12.02;4.55;;;;;;;24.53;42.90;99579.44;7659234;32;40888;-79
2023/07/12 04:05:38;;;;;;;7.40;4.28;;;;;;;24.59;42.99;99593.09;7659079;32;38478;-78
2023/07/12 04:09:55;;;;;;;10.20;4.60;;;;;;;24.57;43.00;99590.69;7659190;32;37428;-79
2023/07/12 04:14:11;;;;;;;7.28;4.30;;;;;;;24.52;43.19;99593.75;7658982;32;39284;-79
2023/07/12 04:18:28;;;;;;;7.12;3.97;;;;;;;24.59;43.65;99585.53;7659026;32;39996;-79
2023/07/12 04:22:50;;;;;;;9.98;4.70;;;;;;;24.56;43.47;99566.78;7659027;32;38100;-79
2023/07/12 04:27:06;;;;;;;10.10;4.60;;;;;;;24.77;42.94;99555.19;7657722;32;37884;-72
2023/07/12 04:31:22;;;;;;;7.57;4.10;;;;;;;24.74;43.23;99550.34;7657292;32;39889;-73
2023/07/12 04:35:39;;;;;;;7.37;4.40;;;;;;;24.50;43.79;99545.94;7658765;32;40021;-72
2023/07/12 04:39:55;;;;;;;7.35;4.32;;;;;;;24.63;43.07;99527.06;7655442;32;38179;-72
2023/07/12 04:44:12;;;;;;;10.07;4.18;;;;;;;24.66;43.25;99556.97;7632514;32;37130;-70
2023/07/12 04:48:30;;;;;;;19.73;5.07;;;;;;;24.67;43.36;99601.22;7632418;32;39511;-74
2023/07/12 04:52:46;;;;;;;13.27;5.60;;;;;;;24.79;46.21;99608.56;7632497;32;39045;-74
2023/07/12 04:57:02;;;;;;;21.52;6.57;;;;;;;24.63;50.19;99597.56;7632384;32;38564;-72
2023/07/12 05:01:24;;;;;;;11.57;5.75;;;;;;;24.31;52.39;99594.97;7645713;32;37235;-69
2023/07/12 05:05:41;;;;;;;10.60;5.10;;;;;;;23.98;52.99;99598.31;7655458;32;40149;-70
2023/07/12 05:09:58;;;;;;;11.10;5.28;;;;;;;23.72;53.49;99596.16;7651846;32;40562;-69
2023/07/12 05:14:14;;;;;;;8.82;5.35;;;;;;;23.18;55.09;99598.56;7658058;32;38174;-70
2023/07/12 05:18:30;;;;;;;12.05;5.50;;;;;;;23.14;55.38;99605.19;7657872;32;37040;-75
2023/07/12 05:22:47;;;;;;;11.45;5.70;;;;;;;22.96;55.99;99618.63;7657855;32;38979;-73
2023/07/12 05:27:04;;;;;;;9.57;5.57;;;;;;;22.79;57.16;99623.38;7658126;32;40896;-71
2023/07/12 05:31:20;;;;;;;10.13;5.47;;;;;;;22.85;57.55;99608.06;7631706;32;38639;-73
2023/07/12 05:35:36;;;;;;;10.90;5.18;;;;;;;22.81;57.51;99600.78;7626600;32;37049;-72
2023/07/12 05:39:53;;;;;;;10.60;6.12;;;;;;;22.81;58.02;99609.94;7630543;32;39469;-72
2023/07/12 05:44:09;;;;;;;12.90;6.00;;;;;;;22.84;58.01;99609.22;7631773;32;40171;-72
2023/07/12 05:48:26;;;;;;;10.15;6.03;;;;;;;22.76;58.15;99614.94;7623365;32;38071;-72
2023/07/12 05:52:42;;;;;;;12.20;6.22;;;;;;;22.63;57.94;99619.81;7603348;32;37201;-71
2023/07/12 05:56:59;;;;;;;12.07;6.05;;;;;;;22.62;58.38;99632.06;7624592;32;39271;-72
2023/07/12 06:01:17;;;;;;;13.18;6.28;;;;;;;22.69;59.53;99621.13;7619312;32;40720;-71
2023/07/12 06:05:33;;;;;;;8.68;5.60;;;;;;;22.90;58.64;99614.50;7630585;32;37916;-72
2023/07/12 06:09:49;;;;;;;12.50;5.97;;;;;;;23.00;58.89;99597.28;7631315;32;37058;-76
2023/07/12 06:14:06;;;;;;;9.13;5.37;;;;;;;23.06;58.97;99588.34;7619279;32;40185;-74
2023/07/12 06:18:22;;;;;;;9.80;5.40;;;;;;;23.40;58.20;99572.03;7623658;32;40003;-76
2023/07/12 06:22:38;;;;;;;13.18;5.50;;;;;;;23.62;58.12;99567.72;7643327;32;37575;-75
2023/07/12 06:26:55;;;;;;;9.32;5.50;;;;;;;24.03;57.26;99555.44;7655565;32;37235;-77
2023/07/12 06:31:12;;;;;;;12.35;5.70;;;;;;;24.17;57.47;99552.91;7656116;32;40094;-79
2023/07/12 06:35:30;;;;;;;8.43;5.68;;;;;;;24.43;58.03;99537.47;7636770;32;39632;-77
2023/07/12 06:39:46;;;;;;;10.93;5.62;;;;;;;24.55;58.07;99540.09;7630619;32;37902;-77
2023/07/12 06:44:02;;;;;;;9.85;5.30;;;;;;;24.71;58.55;99540.75;7630810;32;36836;-77
2023/07/12 06:48:18;;;;;;;10.95;5.87;;;;;;;25.07;56.92;99535.72;7656403;32;39318;-78
2023/07/12 06:52:35;;;;;;;11.02;5.78;;;;;;;24.99;54.75;99545.19;7634976;32;40847;-77
2023/07/12 06:56:51;;;;;;;10.75;5.75;;;;;;;25.24;54.87;99559.47;7629969;32;37986;-77
2023/07/12 07:01:09;;;;;;;8.48;5.62;;;;;;;25.28;55.28;99565.13;7630113;32;38074;-77
2023/07/12 07:05:25;;;;;;;9.32;5.72;;;;;;;25.57;54.09;99546.78;7651964;32;38270;-77
2023/07/12 07:09:42;;;;;;;10.68;5.70;;;;;;;25.20;54.31;99538.28;7659840;32;40850;-77
2023/07/12 07:13:58;;;;;;;8.75;4.90;;;;;;;25.64;51.60;99523.75;7659465;32;38460;-78
2023/07/12 07:18:16;;;;;;;10.93;5.35;;;;;;;25.65;51.71;99514.19;7659795;32;37904;-78
2023/07/12 07:22:33;;;;;;;11.23;5.65;;;;;;;25.83;51.40;99478.09;7657813;32;40160;-78
2023/07/12 07:26:49;;;;;;;8.52;5.22;;;;;;;25.90;51.95;99480.16;7633465;32;40775;-78
2023/07/12 07:31:06;;;;;;;9.15;5.60;;;;;;;25.67;51.84;99478.34;7633160;32;38612;-78
2023/07/12 07:35:23;;;;;;;8.88;5.20;;;;;;;25.78;52.05;99450.53;7633332;32;36798;-77
2023/07/12 07:39:40;;;;;;;10.20;5.37;;;;;;;25.91;53.41;99435.13;7635283;32;40176;-78
2023/07/12 07:43:56;;;;;;;10.80;5.55;;;;;;;26.23;52.49;99446.59;7659399;32;40864;-77
2023/07/12 07:48:12;;;;;;;7.85;4.75;;;;;;;26.32;52.74;99445.44;7637538;32;37643;-77
2023/07/12 07:52:28;;;;;;;9.63;5.70;;;;;;;26.59;51.75;99426.50;7633162;32;37673;-77
2023/07/12 07:56:45;;;;;;;9.55;5.35;;;;;;;26.66;51.73;99420.19;7639389;32;39439;-77
2023/07/12 08:01:01;;;;;;;8.73;5.37;;;;;;;26.79;52.38;99427.06;7651509;32;40816;-79
2023/07/12 08:05:17;;;;;;;11.27;5.53;;;;;;;26.99;50.95;99427.56;7657717;32;38754;-72
2023/07/12 08:09:36;;;;;;;10.23;5.47;;;;;;;26.63;49.79;99432.13;7657748;32;37719;-72
2023/07/12 08:13:53;;;;;;;11.50;5.85;;;;;;;27.34;48.10;99429.75;7658224;32;40156;-74
2023/07/12 08:18:10;;;;;;;7.65;5.15;;;;;;;27.42;48.05;99424.97;7658161;32;40898;-73
2023/07/12 08:22:27;;;;;;;9.05;5.50;;;;;;;27.55;48.39;99433.81;7652644;32;37750;-72
2023/07/12 08:26:44;;;;;;;10.18;5.35;;;;;;;28.14;46.99;99433.53;7657621;32;37354;-73
2023/07/12 08:31:09;;;;;;;9.85;5.47;;;;;;;28.28;46.20;99441.12;7657456;32;39284;-73
2023/07/12 08:35:26;;;;;;;8.23;5.10;;;;;;;28.37;45.14;99438.75;7657992;32;39827;-74
2023/07/12 08:40:03;;;;;;;8.57;5.22;;;;;;;27.94;45.22;99452.72;7658155;32;37959;-73
2023/07/12 08:44:20;;;;;;;10.57;5.07;;;;;;;28.79;46.73;99453.91;7656838;32;37104;-73
2023/07/12 08:48:37;;;;;;;9.07;4.82;;;;;;;29.22;44.76;99453.03;7658375;32;39015;-73
2023/07/12 08:52:53;;;;;;;9.32;4.97;;;;;;;29.37;43.46;99442.53;7654251;32;39981;-73
2023/07/12 08:57:24;;;;;;;9.68;5.30;;;;;;;29.20;43.66;99428.19;7647901;32;38039;-74
2023/07/12 09:01:53;;;;;;;8.15;5.12;;;;;;;29.79;43.77;99432.31;7656469;32;36302;-74
2023/07/12 09:06:14;;;;;;;13.00;5.37;;;;;;;29.63;43.29;99429.97;7649958;32;39402;-74
2023/07/12 09:10:44;;;;;;;8.07;5.32;;;;;;;29.32;43.10;99437.34;7656931;32;39622;-74
2023/07/12 09:15:10;;;;;;;9.50;5.80;;;;;;;29.78;42.44;99436.31;7657210;32;37752;-74
2023/07/12 09:19:31;;;;;;;8.65;4.90;;;;;;;29.68;42.62;99429.50;7648953;32;37914;-73
2023/07/12 09:23:47;;;;;;;9.63;5.00;;;;;;;29.66;43.58;99429.13;7651226;32;40091;-72
2023/07/12 09:28:04;;;;;;;8.20;4.97;;;;;;;29.43;43.63;99431.69;7630962;32;40716;-72
2023/07/12 09:32:28;;;;;;;11.27;5.47;;;;;;;29.53;43.90;99442.84;7638844;32;37668;-73
2023/07/12 09:36:45;;;;;;;8.48;5.50;;;;;;;29.40;44.43;99458.56;7656406;32;37208;-72
2023/07/12 09:41:07;;;;;;;8.70;5.53;;;;;;;29.42;44.00;99453.31;7657695;32;39410;-73
2023/07/12 09:45:29;;;;;;;11.65;5.55;;;;;;;29.37;43.79;99456.56;7655517;32;40843;-72
2023/07/12 09:50:04;;;;;;;10.50;5.28;;;;;;;29.36;43.51;99460.59;7650367;32;37949;-73
2023/07/12 09:55:05;;;;;;;11.65;5.78;;;;;;;29.36;43.78;99463.41;7643036;32;37441;-73
2023/07/12 09:59:40;;;;;;;9.18;5.28;;;;;;;29.32;44.69;99465.41;7637152;32;39404;-71
2023/07/12 10:04:02;;;;;;;11.23;5.43;;;;;;;29.44;44.19;99445.28;7640760;32;40517;-74
2023/07/12 10:08:20;;;;;;;10.45;5.50;;;;;;;29.77;44.39;99440.34;7644383;32;38099;-76
2023/07/12 10:12:46;;;;;;;7.80;4.75;;;;;;;30.07;45.01;99436.13;7655492;32;36831;-73
2023/07/12 10:17:02;;;;;;;11.30;5.30;;;;;;;30.55;41.37;99440.16;7655198;32;39678;-73
2023/07/12 10:21:25;;;;;;;8.48;5.15;;;;;;;30.94;41.28;99444.59;7653417;32;40828;-73
2023/07/12 10:25:46;;;;;;;11.90;5.70;;;;;;;31.11;42.29;99446.41;7648237;32;38018;-73
2023/07/12 10:30:11;;;;;;;8.90;5.62;;;;;;;31.53;39.73;99432.22;7648881;32;37234;-73
2023/07/12 10:34:31;;;;;;;9.18;5.15;;;;;;;31.71;37.26;99429.97;7654728;32;39259;-73
2023/07/12 10:38:48;;;;;;;10.30;5.25;;;;;;;31.98;38.13;99403.78;7657906;32;39872;-74
2023/07/12 10:43:08;;;;;;;8.18;5.20;;;;;;;32.19;37.32;99394.22;7643812;32;37600;-74
2023/07/12 10:47:29;;;;;;;9.40;5.45;;;;;;;32.21;38.31;99402.25;7659856;32;37682;-72
2023/07/12 10:52:05;;;;;;;9.63;5.12;;;;;;;32.56;37.77;99392.31;7654358;32;39380;-74
2023/07/12 10:56:49;;;;;;;11.20;5.80;;;;;;;33.19;36.48;99379.44;7637899;32;40891;-75
2023/07/12 11:01:31;;;;;;;13.35;5.87;;;;;;;33.35;34.21;99381.50;7633635;32;37212;-74
2023/07/12 11:05:54;;;;;;;13.65;6.50;;;;;;;33.31;34.63;99390.06;7657966;32;37223;-73
2023/07/12 11:10:22;;;;;;;13.88;6.50;;;;;;;33.34;37.00;99391.22;7659102;32;40170;-73
2023/07/12 11:14:38;;;;;;;11.23;5.78;;;;;;;33.73;34.13;99384.69;7658700;32;39651;-73
2023/07/12 11:18:57;;;;;;;16.00;6.12;;;;;;;34.11;33.03;99389.03;7655952;32;37926;-80
2023/07/12 11:23:31;;;;;;;10.52;5.32;;;;;;;34.03;34.48;99397.69;7655228;32;37202;-79
2023/07/12 11:27:47;;;;;;;10.07;5.82;;;;;;;34.43;33.88;99391.06;7655565;32;40466;-80
2023/07/12 11:32:25;;;;;;;18.55;6.05;;;;;;;33.99;33.99;99402.62;7650520;32;40000;-80
2023/07/12 11:36:43;;;;;;;12.02;5.30;;;;;;;34.23;34.73;99405.31;7655621;32;38904;-80
2023/07/12 11:41:04;;;;;;;11.30;6.72;;;;;;;34.20;34.61;99400.53;7649440;32;37209;-80
2023/07/12 11:45:23;;;;;;;14.55;6.18;;;;;;;33.06;35.88;99407.50;7631977;32;39016;-81
2023/07/12 11:49:41;;;;;;;10.68;5.90;;;;;;;33.71;35.06;99409.78;7632092;32;39075;-80
2023/07/12 11:53:58;;;;;;;11.15;5.82;;;;;;;33.64;36.01;99399.41;7636163;32;36998;-81
2023/07/12 11:58:20;;;;;;;10.60;5.78;;;;;;;34.28;34.11;99393.47;7641185;32;37966;-82
2023/07/12 12:02:36;;;;;;;10.50;5.72;;;;;;;33.67;35.18;99403.44;7632816;32;39486;-83
2023/07/12 12:07:02;;;;;;;11.23;5.78;;;;;;;33.74;34.24;99397.59;7635428;32;39981;-83
2023/07/12 12:11:21;;;;;;;14.70;6.22;;;;;;;33.39;36.04;99383.03;7658783;32;37889;-82
2023/07/12 12:15:46;;;;;;;10.75;5.72;;;;;;;34.12;35.06;99377.28;7653345;32;36123;-83
2023/07/12 12:20:21;;;;;;;8.90;6.12;;;;;;;33.64;35.27;99379.62;7657854;32;39416;-82
2023/07/12 12:24:46;;;;;;;10.88;6.07;;;;;;;33.54;35.39;99380.66;7658865;32;39927;-82
2023/07/12 12:29:16;;;;;;;13.68;6.50;;;;;;;33.00;36.19;99381.03;7653645;32;37982;-82
2023/07/12 12:33:33;;;;;;;11.18;6.62;;;;;;;33.30;36.50;99380.78;7645462;32;37795;-81
2023/07/12 12:37:59;;;;;;;10.82;6.32;;;;;;;34.14;34.67;99371.19;7645935;32;40233;-81
2023/07/12 12:42:23;;;;;;;13.45;6.65;;;;;;;34.25;33.94;99363.22;7641072;32;39984;-81
2023/07/12 12:46:40;;;;;;;10.95;6.22;;;;;;;33.81;34.41;99357.84;7641130;32;37924;-81
2023/07/12 12:50:59;;;;;;;11.95;6.30;;;;;;;33.99;35.52;99340.44;7640209;32;36650;-82
2023/07/12 12:55:38;;;;;;;10.95;6.22;;;;;;;34.73;33.50;99336.06;7638647;32;39701;-83
2023/07/12 13:00:20;;;;;;;10.82;5.57;;;;;;;35.29;31.54;99322.69;7648008;32;39940;-82
2023/07/12 13:04:39;;;;;;;11.65;5.60;;;;;;;35.27;31.28;99325.19;7652516;32;37282;-82
2023/07/12 13:08:59;;;;;;;10.27;6.15;;;;;;;35.70;31.27;99301.13;7646552;32;37450;-82
2023/07/12 13:13:19;;;;;;;11.20;5.55;;;;;;;35.97;30.30;99300.66;7649061;32;39644;-82
2023/07/12 13:17:38;;;;;;;12.68;5.62;;;;;;;35.72;30.33;99296.62;7650822;32;39271;-82
2023/07/12 13:21:59;;;;;;;8.68;5.00;;;;;;;35.67;31.26;99296.38;7651005;32;37240;-83
2023/07/12 13:26:21;;;;;;;13.75;5.57;;;;;;;36.71;29.86;99283.47;7648069;32;37048;-81
2023/07/12 13:30:38;;;;;;;;;;;;;;;36.49;28.68;99283.44;7631514;32;40057;-81
2023/07/12 13:34:55;;;;;;;12.60;5.72;;;;;;;36.37;29.63;99299.28;7629653;32;40817;-80
2023/07/12 13:39:19;;;;;;;10.77;5.15;;;;;;;35.64;30.27;99297.31;7646528;32;37290;-81
2023/07/12 13:43:38;;;;;;;11.30;5.43;;;;;;;36.20;30.04;99296.59;7656440;32;36598;-82
2023/07/12 13:47:57;;;;;;;9.60;4.18;;;;;;;35.90;29.59;99304.53;7656915;32;38688;-81
2023/07/12 13:52:19;;;;;;;12.30;3.42;;;;;;;35.74;28.11;99304.69;7656927;32;40414;-81
2023/07/12 13:56:35;;;;;;;4.85;2.97;;;;;;;35.60;26.73;99290.94;7657215;32;38712;-81
2023/07/12 14:00:55;;;;;;;7.82;2.80;;;;;;;35.00;27.01;99292.41;7657887;32;36714;-81
2023/07/12 14:05:14;;;;;;;7.62;3.10;;;;;;;34.59;28.35;99296.84;7657931;32;38697;-81
2023/07/12 14:09:33;;;;;;;7.80;3.08;;;;;;;35.00;26.36;99286.75;7657495;32;39264;-82
2023/07/12 14:13:50;;;;;;;6.35;3.00;;;;;;;34.79;25.52;99282.53;7656444;32;37983;-82
2023/07/12 14:18:09;;;;;;;6.80;2.70;;;;;;;34.65;26.53;99292.22;7657392;32;37332;-83
2023/07/12 14:22:30;;;;;;;9.15;3.58;;;;;;;35.23;26.42;99287.69;7656364;32;39351;-83
2023/07/12 14:26:47;;;;;;;7.53;3.62;;;;;;;35.34;25.50;99293.78;7657146;32;39615;-82
2023/07/12 14:31:12;;;;;;;5.97;3.20;;;;;;;35.15;27.18;99296.38;7656544;32;38011;-83
2023/07/12 14:35:28;;;;;;;7.43;3.17;;;;;;;34.51;26.87;99289.78;7655761;32;37138;-82
2023/07/12 14:39:45;;;;;;;9.38;3.08;;;;;;;35.36;27.53;99285.66;7655987;32;39003;-82
2023/07/12 14:44:15;;;;;;;7.18;3.22;;;;;;;36.17;24.68;99274.84;7655507;32;39948;-83
2023/07/12 14:48:32;;;;;;;5.90;3.45;;;;;;;35.74;24.94;99270.66;7655541;32;37856;-82
2023/07/12 14:52:48;;;;;;;6.65;3.40;;;;;;;36.13;24.78;99274.16;7656766;32;37175;-83
2023/07/12 14:57:10;;;;;;;9.02;3.37;;;;;;;35.83;24.85;99267.13;7657661;32;39889;-83
2023/07/12 15:01:46;;;;;;;5.37;2.75;;;;;;;35.82;25.85;99262.69;7656069;32;39306;-82
2023/07/12 15:06:02;;;;;;;4.35;2.60;;;;;;;36.71;23.84;99253.03;7656263;32;38740;-83
2023/07/12 15:10:19;;;;;;;6.05;3.20;;;;;;;36.94;23.70;99236.72;7655951;32;37852;-83
2023/07/12 15:14:35;;;;;;;6.22;3.00;;;;;;;36.97;22.99;99236.59;7656239;32;40139;-83
2023/07/12 15:18:52;;;;;;;9.57;3.15;;;;;;;37.16;22.07;99236.66;7655817;32;39846;-82
2023/07/12 15:23:18;;;;;;;9.95;2.72;;;;;;;37.49;22.88;99241.84;7654689;32;37660;-84
2023/07/12 15:27:35;;;;;;;6.25;2.92;;;;;;;37.45;23.38;99247.69;7659576;32;37659;-84
2023/07/12 15:31:52;;;;;;;7.65;3.12;;;;;;;38.16;22.89;99243.06;7659707;32;40052;-84
2023/07/12 15:36:13;;;;;;;6.22;3.37;;;;;;;38.25;22.05;99239.41;7659364;32;40500;-83
2023/07/12 15:40:51;;;;;;;6.87;3.00;;;;;;;38.19;21.85;99244.16;7659379;32;37956;-84
2023/07/12 15:45:16;;;;;;;5.72;2.72;;;;;;;38.22;22.25;99243.19;7659633;32;37324;-83
2023/07/12 15:49:33;;;;;;;9.98;2.80;;;;;;;37.97;21.87;99253.63;7658428;32;39231;-84
2023/07/12 15:53:51;;;;;;;5.57;2.90;;;;;;;37.41;22.50;99249.84;7659439;32;40801;-84
2023/07/12 15:58:22;;;;;;;8.23;3.40;;;;;;;37.34;23.55;99268.03;7659288;32;36933;-83
2023/07/12 16:02:39;;;;;;;11.15;3.03;;;;;;;36.51;23.77;99270.37;7659389;32;37868;-83
2023/07/12 16:06:55;;;;;;;6.70;2.95;;;;;;;35.97;24.77;99277.97;7659464;32;39411;-83
2023/07/12 16:11:23;;;;;;;6.95;3.10;;;;;;;35.52;25.58;99294.00;7659695;32;40725;-82
2023/07/12 16:15:40;;;;;;;5.57;3.08;;;;;;;35.24;26.58;99284.41;7659090;32;38606;-83
2023/07/12 16:19:56;;;;;;;9.93;3.22;;;;;;;35.21;26.43;99290.97;7658959;32;37850;-83
2023/07/12 16:24:13;;;;;;;6.45;3.15;;;;;;;34.94;26.54;99297.81;7658992;32;40214;-83
2023/07/12 16:28:31;;;;;;;5.87;3.17;;;;;;;34.27;28.26;99304.16;7658783;32;40127;-82
2023/07/12 16:32:47;;;;;;;5.93;2.97;;;;;;;34.31;28.08;99292.78;7658779;32;38873;-82
2023/07/12 16:37:11;;;;;;;6.35;3.20;;;;;;;34.23;30.38;99297.81;7657594;32;37824;-83
2023/07/12 16:41:30;;;;;;;7.82;3.00;;;;;;;34.10;31.66;99294.91;7657775;32;39239;-82
2023/07/12 16:45:47;;;;;;;9.75;3.65;;;;;;;34.08;32.42;99296.59;7657903;32;40154;-82
2023/07/12 16:50:03;;;;;;;10.27;3.42;;;;;;;33.92;33.11;99289.72;7658420;32;38204;-83
2023/07/12 16:54:20;;;;;;;11.35;4.47;;;;;;;33.77;34.34;99288.50;7658744;32;37946;-83
2023/07/12 16:58:36;;;;;;;37.40;10.68;;;;;;;33.74;34.16;99289.38;7659547;32;39900;-83
2023/07/12 17:02:53;;;;;;;11.02;3.92;;;;;;;33.61;34.82;99297.75;7658437;32;40570;-83
2023/07/12 17:07:11;;;;;;;8.13;3.78;;;;;;;33.64;33.59;99299.72;7658090;32;38788;-82
2023/07/12 17:11:28;;;;;;;33.72;8.43;;;;;;;33.50;34.27;99300.84;7658572;32;39269;-82
2023/07/12 17:15:46;;;;;;;16.20;4.78;;;;;;;33.24;35.89;99297.03;7657391;32;40258;-83
2023/07/12 17:20:03;;;;;;;14.52;3.55;;;;;;;33.17;35.36;99291.53;7658220;32;40053;-83
2023/07/12 17:24:19;;;;;;;5.75;3.45;;;;;;;32.81;35.79;99298.75;7658265;32;38747;-82
2023/07/12 17:28:35;;;;;;;10.60;4.35;;;;;;;32.67;35.63;99296.25;7658099;32;37006;-82
2023/07/12 17:32:52;;;;;;;12.40;4.07;;;;;;;32.64;35.74;99306.34;7658139;32;39301;-81
2023/07/12 17:37:16;;;;;;;14.20;4.10;;;;;;;32.62;35.36;99319.31;7656511;32;40794;-82
2023/07/12 17:41:33;;;;;;;7.68;3.30;;;;;;;32.41;35.38;99332.56;7657508;32;37934;-82
2023/07/12 17:45:49;;;;;;;6.97;3.40;;;;;;;32.31;35.71;99328.72;7658113;32;37858;-82
2023/07/12 17:50:06;;;;;;;8.25;3.62;;;;;;;31.94;38.28;99341.84;7656556;32;40124;-82
2023/07/12 17:54:23;;;;;;;7.93;3.78;;;;;;;31.95;37.99;99349.06;7657817;32;39887;-82
2023/07/12 17:58:40;;;;;;;7.90;3.70;;;;;;;31.88;37.81;99354.03;7657581;32;37919;-82
2023/07/12 18:02:57;;;;;;;10.90;3.50;;;;;;;31.81;36.70;99355.72;7657999;32;37695;-82
2023/07/12 18:07:32;;;;;;;8.73;3.33;;;;;;;31.82;37.07;99351.69;7657461;32;39406;-84
2023/07/12 18:11:48;;;;;;;8.80;3.55;;;;;;;31.89;36.84;99353.59;7657237;32;40254;-83
2023/07/12 18:16:04;;;;;;;8.95;3.42;;;;;;;31.87;37.10;99346.78;7657512;32;38469;-83
2023/07/12 18:20:22;;;;;;;10.57;3.72;;;;;;;31.78;38.32;99336.06;7657402;32;38042;-84
2023/07/12 18:24:38;;;;;;;8.38;3.28;;;;;;;31.69;38.00;99336.63;7657351;32;40161;-83
2023/07/12 18:28:56;;;;;;;7.47;4.00;;;;;;;31.59;37.79;99351.66;7657149;32;40565;-84
2023/07/12 18:33:16;;;;;;;8.20;3.80;;;;;;;30.89;40.59;99350.97;7657210;32;37167;-82
2023/07/12 18:37:32;;;;;;;15.85;3.65;;;;;;;30.92;40.97;99354.94;7656662;32;38069;-84
2023/07/12 18:41:49;;;;;;;7.97;4.05;;;;;;;30.70;41.84;99355.22;7657039;32;39067;-83
2023/07/12 18:46:06;;;;;;;12.45;4.10;;;;;;;30.64;42.11;99365.31;7656816;32;39914;-82
2023/07/12 18:50:25;;;;;;;9.98;3.60;;;;;;;30.41;42.87;99370.78;7656696;32;38642;-82
2023/07/12 18:54:42;;;;;;;9.45;3.35;;;;;;;30.36;41.97;99368.44;7655483;32;37825;-82
2023/07/12 18:58:59;;;;;;;9.18;3.95;;;;;;;30.17;41.16;99367.78;7657884;32;40069;-83
2023/07/12 19:03:19;;;;;;;4.32;3.08;;;;;;;30.00;41.23;99371.53;7660184;32;39973;-83
2023/07/12 19:07:36;;;;;;;8.95;4.05;;;;;;;29.96;41.30;99375.19;7659200;32;37889;-82
2023/07/12 19:11:52;;;;;;;9.55;3.53;;;;;;;29.92;41.65;99384.84;7659686;32;36955;-82
2023/07/12 19:16:09;;;;;;;7.32;3.45;;;;;;;29.69;42.34;99380.56;7659941;32;39040;-83
2023/07/12 19:20:26;;;;;;;7.87;3.87;;;;;;;29.48;43.42;99384.31;7659855;32;39894;-83
2023/07/12 19:24:43;;;;;;;13.20;4.00;;;;;;;29.46;42.82;99394.34;7659760;32;37962;-82
2023/07/12 19:28:59;;;;;;;8.90;3.85;;;;;;;29.32;43.42;99395.22;7659623;32;36938;-85
2023/07/12 19:33:17;;;;;;;4.78;3.25;;;;;;;29.23;43.80;99400.50;7659839;32;39340;-85
2023/07/12 19:37:34;;;;;;;7.28;3.65;;;;;;;29.02;44.35;99402.16;7658253;32;39826;-86
2023/07/12 19:41:51;;;;;;;6.68;3.62;;;;;;;28.95;44.52;99385.34;7658508;32;38792;-85
2023/07/12 19:46:10;;;;;;;8.60;4.32;;;;;;;28.90;44.01;99394.97;7658528;32;37064;-83
2023/07/12 19:50:31;;;;;;;6.10;3.67;;;;;;;28.79;44.08;99403.44;7659279;32;39382;-83
2023/07/12 19:54:47;;;;;;;7.97;4.22;;;;;;;28.74;44.02;99405.87;7657869;32;40091;-81
2023/07/12 19:59:03;;;;;;;5.85;3.78;;;;;;;28.72;44.62;99399.84;7674666;32;37973;-82
2023/07/12 20:03:19;;;;;;;7.65;3.80;;;;;;;28.65;45.38;99395.06;7667621;32;38099;-82
2023/07/12 20:07:37;;;;;;;9.30;3.62;;;;;;;28.52;45.82;99407.88;7659354;32;39421;-83
2023/07/12 20:11:53;;;;;;;7.68;3.55;;;;;;;28.43;45.92;99417.50;7658142;32;40013;-84